createdAt,value
2017-07-11T00:01:26.130Z,18.59
2017-07-11T00:06:22.973Z,18.70
2017-07-11T00:11:18.602Z,18.71
2017-07-11T00:16:15.162Z,18.59
2017-07-11T00:21:10.929Z,18.62
2017-07-11T00:26:07.367Z,18.49
2017-07-11T00:31:03.327Z,18.38
2017-07-11T00:36:00.169Z,18.38
2017-07-11T00:40:56.699Z,18.35
2017-07-11T00:45:52.700Z,18.41
2017-07-11T00:50:49.144Z,18.49
2017-07-11T00:55:44.935Z,18.40
2017-07-11T01:00:41.802Z,18.45
2017-07-11T01:05:37.330Z,18.31
2017-07-11T01:10:33.259Z,18.38
2017-07-11T01:15:30.160Z,18.34
2017-07-11T01:20:26.723Z,18.29
2017-07-11T01:25:22.365Z,18.41
2017-07-11T01:30:19.190Z,18.41
2017-07-11T01:35:15.043Z,18.44
2017-07-11T01:40:10.773Z,18.37
2017-07-11T01:45:06.762Z,18.43
2017-07-11T01:50:03.033Z,18.45
2017-07-11T01:54:58.926Z,18.43
2017-07-11T01:59:54.896Z,18.44
2017-07-11T02:04:50.621Z,18.47
2017-07-11T02:09:47.477Z,18.43
2017-07-11T02:14:44.015Z,18.41
2017-07-11T02:19:39.671Z,18.40
2017-07-11T02:24:36.791Z,18.50
2017-07-11T02:29:32.249Z,18.45
2017-07-11T02:34:29.387Z,18.28
2017-07-11T02:39:25.060Z,18.28
2017-07-11T02:44:20.700Z,18.35
2017-07-11T02:49:18.173Z,18.31
2017-07-11T02:54:13.662Z,18.43
2017-07-11T02:59:09.657Z,18.37
2017-07-11T03:04:05.549Z,18.38
2017-07-11T03:09:03.803Z,18.26
2017-07-11T03:13:59.096Z,18.08
2017-07-11T03:18:56.526Z,18.13
2017-07-11T03:23:52.162Z,18.31
2017-07-11T03:28:49.001Z,18.37
2017-07-11T03:33:44.819Z,18.26
2017-07-11T03:38:40.727Z,18.29
2017-07-11T03:43:37.755Z,18.19
2017-07-11T03:48:33.206Z,18.15
2017-07-11T03:53:29.728Z,18.13
2017-07-11T03:58:25.273Z,18.08
2017-07-11T04:03:21.103Z,17.98
2017-07-11T04:08:17.163Z,18.05
2017-07-11T04:13:14.573Z,18.05
2017-07-11T04:18:09.935Z,17.87
2017-07-11T04:23:05.732Z,17.97
2017-07-11T04:28:01.688Z,17.78
2017-07-11T04:32:59.073Z,17.74
2017-07-11T04:37:55.790Z,18.23
2017-07-11T04:42:52.343Z,18.88
2017-07-11T04:47:48.476Z,19.15
2017-07-11T04:52:44.933Z,19.67
2017-07-11T04:57:41.768Z,19.81
2017-07-11T05:02:38.314Z,20.13
2017-07-11T05:07:36.074Z,20.84
2017-07-11T05:12:32.189Z,21.27
2017-07-11T05:17:28.822Z,21.15
2017-07-11T05:22:25.486Z,20.52
2017-07-11T05:27:21.714Z,20.06
2017-07-11T05:32:19.368Z,20.31
2017-07-11T05:37:16.007Z,20.13
2017-07-11T05:42:11.386Z,19.14
2017-07-11T05:47:07.150Z,19.14
2017-07-11T05:52:03.123Z,19.15
2017-07-11T05:56:59.133Z,18.93
2017-07-11T06:01:55.009Z,18.98
2017-07-11T06:06:50.567Z,18.78
2017-07-11T06:11:47.586Z,18.77
2017-07-11T06:16:44.403Z,18.77
2017-07-11T06:21:39.903Z,18.45
2017-07-11T06:26:35.262Z,18.33
2017-07-11T06:31:30.940Z,18.35
2017-07-11T06:36:27.817Z,18.53
2017-07-11T06:41:23.430Z,18.33
2017-07-11T06:46:19.251Z,18.50
2017-07-11T06:51:15.122Z,18.38
2017-07-11T06:56:10.947Z,18.15
2017-07-11T07:01:06.576Z,18.20
2017-07-11T07:06:02.983Z,18.19
2017-07-11T07:10:59.724Z,18.15
2017-07-11T07:15:55.093Z,18.16
2017-07-11T07:20:51.063Z,18.16
2017-07-11T07:25:47.056Z,18.03
2017-07-11T07:30:43.516Z,18.19
2017-07-11T07:35:39.511Z,18.13
2017-07-11T07:40:35.375Z,18.01
2017-07-11T07:45:32.094Z,18.03
2017-07-11T07:50:29.183Z,18.26
2017-07-11T07:55:24.717Z,18.37
2017-07-11T08:00:20.352Z,18.38
2017-07-11T08:05:16.824Z,18.33
2017-07-11T08:10:13.148Z,18.44
2017-07-11T08:15:09.129Z,18.38
2017-07-11T08:20:06.300Z,18.43
2017-07-11T08:25:02.904Z,18.41
2017-07-11T08:29:59.577Z,18.56
2017-07-11T08:34:56.304Z,18.58
2017-07-11T08:39:51.974Z,18.62
2017-07-11T08:44:47.725Z,18.37
2017-07-11T08:49:43.605Z,18.41
2017-07-11T08:54:39.634Z,18.44
2017-07-11T08:59:37.211Z,18.80
2017-07-11T09:04:33.236Z,18.83
2017-07-11T09:09:29.298Z,18.95
2017-07-11T09:14:26.723Z,19.14
2017-07-11T09:19:22.764Z,18.99
2017-07-11T09:24:19.586Z,19.00
2017-07-11T09:29:15.226Z,19.16
2017-07-11T09:34:11.306Z,19.31
2017-07-11T09:39:07.355Z,19.45
2017-07-11T09:44:03.704Z,19.47
2017-07-11T09:48:59.555Z,19.47
2017-07-11T09:53:55.469Z,19.58
2017-07-11T09:58:51.650Z,19.76
2017-07-11T10:03:48.103Z,19.88
2017-07-11T10:08:43.707Z,19.74
2017-07-11T10:13:41.254Z,19.91
2017-07-11T10:18:37.627Z,20.18
2017-07-11T10:23:34.016Z,20.36
2017-07-11T10:28:31.452Z,20.66
2017-07-11T10:33:29.152Z,21.51
2017-07-11T10:38:28.516Z,21.54
2017-07-11T10:43:25.739Z,21.91
2017-07-11T10:48:23.485Z,22.23
2017-07-11T10:53:20.565Z,22.98
2017-07-11T10:58:17.945Z,23.03
2017-07-11T11:03:14.440Z,22.83
2017-07-11T11:08:11.291Z,23.15
2017-07-11T11:13:07.405Z,22.84
2017-07-11T11:18:04.464Z,23.31
2017-07-11T11:23:00.354Z,23.46
2017-07-11T11:27:57.587Z,23.76
2017-07-11T11:32:53.614Z,23.71
2017-07-11T11:37:49.194Z,23.58
2017-07-11T11:42:48.921Z,23.83
2017-07-11T11:47:45.633Z,24.02
2017-07-11T11:52:43.735Z,24.30
2017-07-11T11:57:37.619Z,24.43
2017-07-11T12:02:35.155Z,24.65
2017-07-11T12:07:31.574Z,24.35
2017-07-11T12:12:27.447Z,24.86
2017-07-11T12:17:21.607Z,24.21
2017-07-11T12:22:17.414Z,23.88
2017-07-11T12:27:14.401Z,24.16
2017-07-11T12:32:09.674Z,24.17
2017-07-11T12:37:04.054Z,23.86
2017-07-11T12:41:59.871Z,23.86
2017-07-11T12:46:55.259Z,24.03
2017-07-11T12:51:51.518Z,24.14
2017-07-11T12:56:47.027Z,23.92
2017-07-11T13:01:43.233Z,24.13
2017-07-11T13:06:40.758Z,23.88
2017-07-11T13:11:37.888Z,23.96
2017-07-11T13:16:34.889Z,24.21
2017-07-11T13:21:31.865Z,24.33
2017-07-11T13:26:29.235Z,23.91
2017-07-11T13:31:24.299Z,23.66
2017-07-11T13:36:19.880Z,23.81
2017-07-11T13:41:15.448Z,23.80
2017-07-11T13:46:12.577Z,23.98
2017-07-11T13:51:08.412Z,23.98
2017-07-11T13:56:05.206Z,23.83
2017-07-11T14:01:00.863Z,23.78
2017-07-11T14:05:56.512Z,23.56
2017-07-11T14:10:52.753Z,23.28
2017-07-11T14:15:48.921Z,23.17
2017-07-11T14:20:44.959Z,21.77
2017-07-11T14:25:39.771Z,20.63
2017-07-11T14:30:34.930Z,19.71
2017-07-11T14:35:30.204Z,19.55
2017-07-11T14:40:25.586Z,19.26
2017-07-11T14:45:21.246Z,19.19
2017-07-11T14:50:16.927Z,19.09
2017-07-11T14:55:13.640Z,19.15
2017-07-11T15:00:09.707Z,19.12
2017-07-11T15:05:05.862Z,19.29
2017-07-11T15:10:02.279Z,19.79
2017-07-11T15:14:59.523Z,19.94
2017-07-11T15:19:55.869Z,19.89
2017-07-11T15:24:52.918Z,20.00
2017-07-11T15:29:48.524Z,19.95
2017-07-11T15:34:45.547Z,19.95
2017-07-11T15:39:41.014Z,19.74
2017-07-11T15:44:36.897Z,19.86
2017-07-11T15:49:32.723Z,20.11
2017-07-11T15:54:29.580Z,20.03
2017-07-11T15:59:25.172Z,20.25
2017-07-11T16:04:21.318Z,20.18
2017-07-11T16:09:16.941Z,20.28
2017-07-11T16:14:14.288Z,20.31
2017-07-11T16:19:10.950Z,20.36
2017-07-11T16:24:06.483Z,20.39
2017-07-11T16:29:02.244Z,20.47
2017-07-11T16:33:58.104Z,20.47
2017-07-11T16:38:55.325Z,20.52
2017-07-11T16:43:51.036Z,20.52
2017-07-11T16:48:47.079Z,20.62
2017-07-11T16:53:44.071Z,20.75
2017-07-11T16:58:39.451Z,20.69
2017-07-11T17:03:36.626Z,20.65
2017-07-11T17:08:31.901Z,20.43
2017-07-11T17:13:29.180Z,20.58
2017-07-11T17:18:24.756Z,20.50
2017-07-11T17:23:21.200Z,20.39
2017-07-11T17:28:17.823Z,20.44
2017-07-11T17:33:13.443Z,20.40
2017-07-11T17:38:10.101Z,20.50
2017-07-11T17:43:05.730Z,20.47
2017-07-11T17:48:01.707Z,20.51
2017-07-11T17:52:58.799Z,20.37
2017-07-11T17:57:54.375Z,20.43
2017-07-11T18:02:50.240Z,20.36
2017-07-11T18:07:47.525Z,20.43
2017-07-11T18:12:43.383Z,20.37
2017-07-11T18:17:39.613Z,20.26
2017-07-11T18:22:35.579Z,20.32
2017-07-11T18:27:31.663Z,20.28
2017-07-11T18:32:27.467Z,20.16
2017-07-11T18:37:24.745Z,20.03
2017-07-11T18:42:20.339Z,19.95
2017-07-11T18:47:17.150Z,19.82
2017-07-11T18:52:12.633Z,19.79
2017-07-11T18:57:08.445Z,19.76
2017-07-11T19:02:04.170Z,19.67
2017-07-11T19:06:59.877Z,19.54
2017-07-11T19:11:56.168Z,19.45
2017-07-11T19:16:53.149Z,19.34
2017-07-11T19:21:49.279Z,19.40
2017-07-11T19:26:46.262Z,19.56
2017-07-11T19:31:43.055Z,19.63
2017-07-11T19:36:38.804Z,19.66
2017-07-11T19:41:34.504Z,19.64
2017-07-11T19:46:30.846Z,19.67
2017-07-11T19:51:27.193Z,19.79
2017-07-11T19:56:23.150Z,19.69
2017-07-11T20:01:20.576Z,19.70
2017-07-11T20:06:17.079Z,19.73
2017-07-11T20:11:13.248Z,19.62
2017-07-11T20:16:10.215Z,19.56
2017-07-11T20:21:05.933Z,19.63
2017-07-11T20:26:03.115Z,19.39
2017-07-11T20:31:00.655Z,19.40
2017-07-11T20:35:57.679Z,19.39
2017-07-11T20:40:54.765Z,19.27
2017-07-11T20:45:50.792Z,19.31
2017-07-11T20:50:50.207Z,19.44
2017-07-11T20:55:45.195Z,19.45
2017-07-11T21:00:40.883Z,19.55
2017-07-11T21:05:37.461Z,19.55
2017-07-11T21:10:34.128Z,19.41
2017-07-11T21:15:30.985Z,19.52
2017-07-11T21:20:26.398Z,19.52
2017-07-11T21:25:23.263Z,19.62
2017-07-11T21:30:18.802Z,19.55
2017-07-11T21:35:14.563Z,19.54
2017-07-11T21:40:11.739Z,19.47
2017-07-11T21:45:07.290Z,19.44
2017-07-11T21:50:04.570Z,19.51
2017-07-11T21:55:00.459Z,19.54
2017-07-11T21:59:56.632Z,19.54
2017-07-11T22:04:53.675Z,19.41
2017-07-11T22:09:49.350Z,19.45
2017-07-11T22:14:45.575Z,19.40
2017-07-11T22:19:41.418Z,19.36
2017-07-11T22:24:38.346Z,19.36
2017-07-11T22:29:33.897Z,19.29
2017-07-11T22:34:29.762Z,19.34
2017-07-11T22:39:25.669Z,19.31
2017-07-11T22:44:22.833Z,19.30
2017-07-11T22:49:18.575Z,19.22
2017-07-11T22:54:14.487Z,19.16
2017-07-11T22:59:10.397Z,19.14
2017-07-11T23:04:06.372Z,19.15
2017-07-11T23:09:02.216Z,19.14
2017-07-11T23:13:58.376Z,19.18
2017-07-11T23:18:55.286Z,19.09
2017-07-11T23:23:50.786Z,19.09
2017-07-11T23:28:46.695Z,19.02
2017-07-11T23:33:42.504Z,19.14
2017-07-11T23:38:39.513Z,18.84
2017-07-11T23:43:35.060Z,18.90
2017-07-11T23:48:30.842Z,18.88
2017-07-11T23:53:27.723Z,18.88
2017-07-11T23:58:23.259Z,18.93
